This is the latest recevied weather packets stored in our database for station/object IN3BXS. If no packets are shown the sender has not sent any weather packets the latest 10 day(s).
| Time | Temp. | Humidity | Pressure | Rain* | Wind** | Luminosity | Snow |
|---|---|---|---|---|---|---|---|
| 1777590026 | 4.44° C | 34% | 1024.8 hPa | 0 mm | - | - | - |
| 1777588226 | 4.44° C | 35% | 1023.8 hPa | 0 mm | - | - | - |
| 1777586426 | 3.89° C | 35% | 1023.9 hPa | 0 mm | - | - | - |
| 1777584626 | 4.44° C | 34% | 1023.7 hPa | 0 mm | - | - | - |
| 1777582826 | 4.44° C | 32% | 1023.6 hPa | 0 mm | - | - | - |
| 1777581026 | 5.56° C | 31% | 1023.2 hPa | 0 mm | - | - | - |
| 1777579226 | 6.11° C | 29% | 1021.7 hPa | 0 mm | - | - | - |
| 1777577427 | 7.22° C | 28% | 1021.2 hPa | 0 mm | - | - | - |
| 1777575626 | 8.89° C | 27% | 1020.6 hPa | 0 mm | - | - | - |
| 1777573826 | 9.44° C | 27% | 1019 hPa | 0 mm | - | - | - |
| 1777572027 | 10.56° C | 26% | 1018.8 hPa | 0 mm | - | - | - |
| 1777570226 | 11.11° C | 26% | 1018.4 hPa | 0 mm | - | - | - |
| 1777568426 | 11.67° C | 26% | 1017.1 hPa | 0 mm | - | - | - |
| 1777566627 | 12.22° C | 25% | 1016.9 hPa | 0 mm | - | - | - |
| 1777564827 | 12.78° C | 25% | 1016.6 hPa | 0 mm | - | - | - |
| 1777563027 | 13.33° C | 25% | 1016.3 hPa | 0 mm | - | - | - |
| 1777561226 | 13.89° C | 24% | 1016.1 hPa | 0 mm | - | - | - |
| 1777559426 | 14.44° C | 24% | 1015.9 hPa | 0 mm | - | - | - |
| 1777557626 | 14.44° C | 24% | 1015.8 hPa | 0 mm | - | - | - |
| 1777555826 | 15° C | 24% | 1016.8 hPa | 0 mm | - | - | - |
| 1777554026 | 15° C | 24% | 1016.7 hPa | 0 mm | - | - | - |
| 1777552226 | 15° C | 24% | 1016.7 hPa | 0 mm | - | - | - |
| 1777548626 | 14.44° C | 25% | 1017 hPa | 0 mm | - | - | - |
| 1777546826 | 13.89° C | 25% | 1017.2 hPa | 0 mm | - | - | - |
| 1777545026 | 12.78° C | 27% | 1018.9 hPa | 0 mm | - | - | - |
* Rain latest hour (hover to see other rain measurements)
** Current wind speed in m/s (hover to see current wind gust speed)